Time;durP1;ratioP1;P1;durP2;ratioP2;P2;SDS_P1;SDS_P2;PMS_P1;PMS_P2;Temp;Humidity;BMP_temperature;BMP_pressure;BME280_temperature;BME280_humidity;BME280_pressure;Samples;Min_cycle;Max_cycle;Signal;HPM_P1;HPM_P2
2021/10/04 00:01:04;;;;;;;3.07;2.27;;;10.50;99.90;;;;;;5140171;27;20766;-63
2021/10/04 00:03:31;;;;;;;5.87;2.63;;;10.50;99.90;;;;;;5139658;27;20514;-63
2021/10/04 00:05:58;;;;;;;2.70;2.50;;;10.60;1.00;;;;;;5140503;27;20459;-63
2021/10/04 00:08:25;;;;;;;3.67;2.50;;;10.50;99.90;;;;;;5140499;27;20486;-63
2021/10/04 00:10:52;;;;;;;5.30;2.33;;;10.50;99.90;;;;;;5139692;27;20542;-63
2021/10/04 00:13:22;;;;;;;3.53;2.30;;;10.60;99.90;;;;;;5140165;27;20469;-63
2021/10/04 00:15:49;;;;;;;5.40;2.53;;;10.60;1.00;;;;;;5138691;27;20462;-63
2021/10/04 00:21:37;;;;;;;4.70;2.43;;;10.60;1.00;;;;;;5139604;27;20835;-63
2021/10/04 00:24:05;;;;;;;4.90;2.60;;;10.70;99.90;;;;;;5139966;27;20458;-63
2021/10/04 00:26:32;;;;;;;3.30;2.17;;;10.70;99.90;;;;;;5139965;27;20457;-63
2021/10/04 00:29:01;;;;;;;4.00;2.53;;;10.60;99.90;;;;;;5139784;27;20500;-62
2021/10/04 00:31:28;;;;;;;5.03;2.30;;;10.70;99.90;;;;;;5139537;27;20873;-63
2021/10/04 00:33:55;;;;;;;3.10;2.50;;;10.60;99.90;;;;;;5139747;27;20458;-63
2021/10/04 00:36:22;;;;;;;3.63;2.80;;;10.70;99.90;;;;;;5139878;27;20746;-63
2021/10/04 00:38:51;;;;;;;6.00;2.83;;;10.70;99.90;;;;;;5139381;27;20464;-63
2021/10/04 00:41:18;;;;;;;4.63;2.57;;;10.70;99.90;;;;;;5139433;27;20482;-64
2021/10/04 00:43:45;;;;;;;4.47;2.60;;;10.70;99.90;;;;;;5139307;27;20467;-63
2021/10/04 00:46:14;;;;;;;5.80;2.60;;;10.70;99.90;;;;;;5140046;27;20462;-63
2021/10/04 00:48:41;;;;;;;4.57;2.40;;;10.60;99.90;;;;;;5139505;27;20533;-63
2021/10/04 00:51:09;;;;;;;3.93;2.80;;;10.60;2.90;;;;;;5138984;27;20457;-63
2021/10/04 00:53:36;;;;;;;4.30;2.83;;;10.60;99.90;;;;;;5139030;27;20455;-63
2021/10/04 00:56:04;;;;;;;2.77;2.20;;;10.50;99.90;;;;;;5139558;27;20507;-63
2021/10/04 00:58:31;;;;;;;3.53;2.50;;;10.50;99.90;;;;;;5139255;27;20482;-63
2021/10/04 01:00:58;;;;;;;3.50;2.43;;;10.50;99.90;;;;;;5138837;27;21039;-63
2021/10/04 01:03:27;;;;;;;3.30;2.40;;;10.40;1.00;;;;;;5138276;27;20924;-63
2021/10/04 01:05:54;;;;;;;3.80;2.37;;;10.50;1.00;;;;;;5139170;27;20877;-63
2021/10/04 01:08:21;;;;;;;3.53;2.50;;;10.50;1.00;;;;;;5138945;27;20486;-63
2021/10/04 01:10:48;;;;;;;3.80;2.50;;;10.40;1.00;;;;;;5138166;27;20511;-62
2021/10/04 01:13:16;;;;;;;2.93;2.57;;;10.40;84.30;;;;;;5138198;27;20515;-63
2021/10/04 01:15:43;;;;;;;3.33;2.50;;;10.40;99.90;;;;;;5139101;27;20463;-63
2021/10/04 01:18:10;;;;;;;2.57;2.37;;;10.40;99.90;;;;;;5138863;27;20467;-63
2021/10/04 01:20:39;;;;;;;4.07;2.50;;;10.40;99.90;;;;;;5138709;27;20455;-63
2021/10/04 01:23:06;;;;;;;4.20;2.40;;;10.40;99.90;;;;;;5138076;27;20492;-63
2021/10/04 01:25:33;;;;;;;4.07;3.40;;;10.40;99.90;;;;;;5138431;27;20483;-63
2021/10/04 01:28:01;;;;;;;3.90;2.47;;;10.40;99.90;;;;;;5138473;27;20458;-63
2021/10/04 01:30:30;;;;;;;3.43;2.40;;;10.40;99.90;;;;;;5138161;27;20490;-63
2021/10/04 01:32:57;;;;;;;4.27;2.60;;;10.40;99.90;;;;;;5138367;27;20458;-63
2021/10/04 01:35:25;;;;;;;5.30;2.30;;;10.50;99.90;;;;;;5138553;27;20490;-63
2021/10/04 01:37:54;;;;;;;3.27;2.27;;;10.50;99.90;;;;;;5138201;27;20965;-63
2021/10/04 01:40:24;;;;;;;2.57;2.37;;;10.50;99.90;;;;;;5138198;27;20497;-63
2021/10/04 01:46:13;;;;;;;2.73;2.50;;;10.50;99.90;;;;;;5136862;27;20474;-63
2021/10/04 01:48:40;;;;;;;3.77;2.20;;;10.40;99.90;;;;;;5138213;27;21802;-63
2021/10/04 01:51:07;;;;;;;2.80;2.60;;;10.40;99.90;;;;;;5138148;27;20496;-63
2021/10/04 01:53:35;;;;;;;3.93;2.53;;;10.30;99.90;;;;;;5137844;27;20574;-63
2021/10/04 01:56:02;;;;;;;3.70;2.20;;;10.30;99.90;;;;;;5138104;27;20896;-63
2021/10/04 01:58:30;;;;;;;2.50;2.30;;;10.20;99.90;;;;;;5137987;27;20490;-63
2021/10/04 02:00:57;;;;;;;2.40;2.10;;;10.20;99.90;;;;;;5136544;27;20433;-63
2021/10/04 02:03:29;;;;;;;5.20;2.53;;;10.20;99.90;;;;;;5137146;27;20453;-63
2021/10/04 02:05:56;;;;;;;2.60;2.30;;;10.30;99.90;;;;;;5138129;27;20511;-63
2021/10/04 02:08:23;;;;;;;2.80;2.13;;;10.30;99.90;;;;;;5137783;27;20467;-63
2021/10/04 02:10:52;;;;;;;4.17;2.50;;;10.30;99.90;;;;;;5123911;27;20587;-63
2021/10/04 02:13:19;;;;;;;2.90;2.37;;;10.30;99.90;;;;;;5136578;27;20515;-63
2021/10/04 02:15:46;;;;;;;4.23;1.60;;;10.30;99.90;;;;;;5137549;27;20454;-63
2021/10/04 02:18:13;;;;;;;2.50;2.30;;;10.30;99.90;;;;;;5138160;27;20462;-63
2021/10/04 02:20:42;;;;;;;4.00;2.60;;;10.30;99.90;;;;;;5138450;27;20463;-63
2021/10/04 02:23:11;;;;;;;3.50;2.70;;;10.40;99.90;;;;;;5138410;27;20458;-63
2021/10/04 02:25:41;;;;;;;7.37;2.40;;;10.40;99.90;;;;;;5138357;27;20459;-63
2021/10/04 02:28:10;;;;;;;5.53;2.13;;;10.40;99.90;;;;;;5138682;27;20523;-63
2021/10/04 02:30:40;;;;;;;3.73;2.50;;;10.40;99.90;;;;;;5138297;27;20483;-63
2021/10/04 02:33:07;;;;;;;3.40;2.20;;;10.40;99.90;;;;;;5137842;27;20439;-63
2021/10/04 02:35:39;;;;;;;2.50;2.27;;;10.30;99.90;;;;;;5138104;27;20755;-63
2021/10/04 02:38:06;;;;;;;3.10;2.40;;;10.20;99.90;;;;;;5137929;27;20895;-63
2021/10/04 02:40:34;;;;;;;3.70;2.20;;;10.30;99.90;;;;;;5138336;27;20550;-63
2021/10/04 02:43:01;;;;;;;6.03;2.87;;;10.30;99.90;;;;;;5137986;28;20961;-63
2021/10/04 02:45:29;;;;;;;3.80;2.80;;;10.30;99.90;;;;;;5137964;28;20508;-63
2021/10/04 02:47:59;;;;;;;3.47;2.90;;;10.30;99.90;;;;;;5138057;28;20503;-63
2021/10/04 02:50:27;;;;;;;2.77;2.37;;;10.30;99.90;;;;;;5138004;28;20916;-63
2021/10/04 02:52:55;;;;;;;2.50;2.30;;;10.30;99.90;;;;;;5137572;28;20458;-63
2021/10/04 02:55:22;;;;;;;3.00;2.20;;;10.30;99.90;;;;;;5137900;28;20900;-63
2021/10/04 02:57:49;;;;;;;2.20;2.00;;;10.40;99.90;;;;;;5138385;28;20459;-63
2021/10/04 03:00:18;;;;;;;2.83;2.00;;;10.40;99.90;;;;;;5138066;28;20454;-63
2021/10/04 03:02:47;;;;;;;4.73;2.10;;;10.40;99.90;;;;;;5137353;28;20482;-63
2021/10/04 03:05:14;;;;;;;3.53;2.30;;;10.40;99.90;;;;;;5137556;28;20459;-63
2021/10/04 03:07:41;;;;;;;3.60;2.40;;;10.40;99.90;;;;;;5138259;28;20511;-63
2021/10/04 03:10:09;;;;;;;3.60;2.53;;;10.40;99.90;;;;;;5137674;28;20491;-64
2021/10/04 03:12:36;;;;;;;4.30;2.47;;;10.40;99.90;;;;;;5137105;28;20499;-63
2021/10/04 03:15:04;;;;;;;2.40;2.10;;;10.40;99.90;;;;;;5136946;28;20463;-63
2021/10/04 03:17:31;;;;;;;3.63;2.87;;;10.50;99.90;;;;;;5136958;28;20511;-63
2021/10/04 03:19:59;;;;;;;3.30;2.83;;;10.50;99.90;;;;;;5137249;28;20795;-63
2021/10/04 03:22:26;;;;;;;2.60;2.37;;;10.40;99.90;;;;;;5137034;28;20451;-63
2021/10/04 03:24:53;;;;;;;2.43;2.23;;;10.40;99.90;;;;;;5136930;28;20507;-63
2021/10/04 03:27:20;;;;;;;4.60;2.50;;;10.40;99.90;;;;;;5137232;28;20801;-63
2021/10/04 03:29:47;;;;;;;2.40;2.13;;;10.40;99.90;;;;;;5136909;28;20774;-63
2021/10/04 03:32:14;;;;;;;2.60;2.40;;;10.40;99.90;;;;;;5136479;28;20458;-63
2021/10/04 03:34:41;;;;;;;3.83;2.60;;;10.40;99.90;;;;;;5137104;28;20850;-63
2021/10/04 03:37:14;;;;;;;3.30;2.43;;;10.40;99.90;;;;;;5137012;28;20511;-63
2021/10/04 03:39:41;;;;;;;3.33;2.20;;;10.50;99.90;;;;;;5136923;28;20458;-63
2021/10/04 03:42:08;;;;;;;3.23;2.07;;;10.50;99.90;;;;;;5136750;28;20519;-63
2021/10/04 03:44:35;;;;;;;2.57;2.27;;;10.50;99.90;;;;;;5137082;28;20444;-63
2021/10/04 03:47:02;;;;;;;5.20;2.70;;;10.50;99.90;;;;;;5136918;28;20466;-63
2021/10/04 03:49:29;;;;;;;2.10;1.90;;;10.50;99.90;;;;;;5136861;27;20486;-63
2021/10/04 03:51:56;;;;;;;3.47;2.23;;;10.40;99.90;;;;;;5140381;27;20465;-63
2021/10/04 03:54:24;;;;;;;3.30;2.27;;;10.50;99.90;;;;;;5140691;27;20444;-63
2021/10/04 03:56:51;;;;;;;6.17;2.80;;;10.50;99.90;;;;;;5140397;27;20458;-63
2021/10/04 03:59:18;;;;;;;3.70;2.50;;;10.50;99.90;;;;;;5140422;27;20548;-63
2021/10/04 04:01:45;;;;;;;2.57;2.37;;;10.50;99.90;;;;;;5140231;27;20468;-63
2021/10/04 04:04:12;;;;;;;2.53;2.33;;;10.50;99.90;;;;;;5140466;27;20535;-63
2021/10/04 04:06:41;;;;;;;3.20;2.50;;;10.50;99.90;;;;;;5140487;27;20852;-63
2021/10/04 04:09:08;;;;;;;2.00;1.80;;;10.60;99.90;;;;;;5140089;27;20470;-63
2021/10/04 04:11:36;;;;;;;4.57;2.73;;;10.60;1.00;;;;;;5136581;27;20463;-63
2021/10/04 04:14:07;;;;;;;2.80;2.20;;;10.60;1.00;;;;;;5140310;27;20462;-63
2021/10/04 04:16:34;;;;;;;3.30;2.30;;;10.70;99.90;;;;;;5140642;27;20954;-63
2021/10/04 04:19:01;;;;;;;4.00;2.40;;;10.60;99.90;;;;;;5139760;27;20470;-63
2021/10/04 04:21:28;;;;;;;2.80;2.57;;;10.60;99.90;;;;;;5139430;27;20522;-63
2021/10/04 04:23:56;;;;;;;2.80;2.33;;;10.60;99.90;;;;;;5140076;27;20511;-63
2021/10/04 04:26:25;;;;;;;3.53;2.30;;;10.60;1.00;;;;;;5140006;27;20511;-63
2021/10/04 04:28:56;;;;;;;3.20;2.63;;;10.60;1.00;;;;;;5139484;27;20511;-63
2021/10/04 04:31:23;;;;;;;3.30;2.63;;;10.60;1.00;;;;;;5135491;27;20798;-63
2021/10/04 04:33:50;;;;;;;2.40;2.10;;;10.60;1.00;;;;;;5129174;27;20767;-63
2021/10/04 04:36:17;;;;;;;3.13;2.30;;;10.60;99.90;;;;;;5139752;27;20496;-63
2021/10/04 04:38:44;;;;;;;4.00;2.60;;;10.60;99.90;;;;;;5140522;27;20446;-63
2021/10/04 04:41:11;;;;;;;2.73;2.40;;;10.60;99.90;;;;;;5139823;27;20459;-63
2021/10/04 04:43:38;;;;;;;4.27;2.70;;;10.50;1.00;;;;;;5140155;27;20459;-63
2021/10/04 04:46:10;;;;;;;3.13;2.17;;;10.60;99.90;;;;;;5140344;27;20463;-63
2021/10/04 04:48:38;;;;;;;3.03;2.73;;;10.60;1.00;;;;;;5139768;27;20770;-63
2021/10/04 04:51:08;;;;;;;3.17;2.37;;;10.60;1.00;;;;;;5139098;27;20489;-63
2021/10/04 04:53:35;;;;;;;3.10;2.43;;;10.60;99.90;;;;;;5139929;27;20454;-63
2021/10/04 04:56:02;;;;;;;2.93;2.23;;;10.60;99.90;;;;;;5139654;27;20466;-63
2021/10/04 04:58:31;;;;;;;3.40;2.40;;;10.60;1.00;;;;;;5140094;27;20454;-63
2021/10/04 05:00:58;;;;;;;3.33;2.87;;;10.60;99.90;;;;;;5139857;27;20457;-63
2021/10/04 05:03:26;;;;;;;5.03;2.30;;;10.60;1.00;;;;;;5138168;27;20527;-63
2021/10/04 05:05:56;;;;;;;3.00;2.70;;;10.60;1.00;;;;;;5139626;27;20528;-63
2021/10/04 05:08:23;;;;;;;3.60;2.43;;;10.60;1.00;;;;;;5133695;27;20814;-63
2021/10/04 05:10:52;;;;;;;4.53;2.40;;;10.60;1.00;;;;;;5138395;27;20924;-63
2021/10/04 05:13:21;;;;;;;3.37;2.70;;;10.60;1.00;;;;;;5138202;27;20490;-63
2021/10/04 05:15:47;;;;;;;4.13;2.53;;;10.60;99.90;;;;;;5138157;27;20822;-63
2021/10/04 05:18:20;;;;;;;3.23;2.73;;;10.60;99.90;;;;;;5138863;27;20478;-63
2021/10/04 05:20:48;;;;;;;3.03;2.73;;;10.60;1.00;;;;;;5138229;27;20507;-63
2021/10/04 05:23:16;;;;;;;6.23;2.50;;;10.60;99.90;;;;;;5138675;27;20454;-63
2021/10/04 05:25:43;;;;;;;3.37;2.30;;;10.60;1.00;;;;;;5138795;27;20816;-63
2021/10/04 05:28:10;;;;;;;2.87;2.40;;;10.60;1.00;;;;;;5138941;27;20461;-63
2021/10/04 05:30:37;;;;;;;5.00;2.57;;;10.70;1.00;;;;;;5138544;27;20558;-63
2021/10/04 05:33:04;;;;;;;6.23;2.73;;;10.70;99.90;;;;;;5138279;27;20897;-63
2021/10/04 05:35:31;;;;;;;6.00;2.70;;;10.70;99.90;;;;;;5139371;27;20498;-63
2021/10/04 05:37:59;;;;;;;3.60;2.70;;;10.70;99.90;;;;;;5139515;27;20454;-63
2021/10/04 05:40:26;;;;;;;4.77;2.27;;;10.80;1.00;;;;;;5139125;27;20877;-63
2021/10/04 05:42:53;;;;;;;3.83;2.60;;;10.80;99.90;;;;;;5138591;27;20506;-63
2021/10/04 05:45:21;;;;;;;6.27;2.77;;;10.80;1.00;;;;;;5138947;27;20433;-63
2021/10/04 05:47:48;;;;;;;2.90;2.33;;;10.80;10.60;;;;;;5138983;27;20765;-63
2021/10/04 05:50:15;;;;;;;3.27;2.60;;;10.80;1.00;;;;;;5138316;27;20486;-63
2021/10/04 05:52:42;;;;;;;2.53;2.33;;;10.90;1.00;;;;;;5139191;27;20454;-63
2021/10/04 05:55:11;;;;;;;4.70;3.27;;;11.00;99.90;;;;;;5138048;27;20519;-63
2021/10/04 05:57:43;;;;;;;4.50;3.90;;;11.00;1.00;;;;;;5138689;27;20885;-63
2021/10/04 06:00:13;;;;;;;5.03;4.53;;;10.90;1.00;;;;;;5139321;27;20796;-63
2021/10/04 06:02:40;;;;;;;9.10;8.23;;;11.00;1.00;;;;;;5138636;27;20585;-63
2021/10/04 06:05:08;;;;;;;8.50;5.97;;;11.00;99.90;;;;;;5138488;27;20462;-63
2021/10/04 06:07:39;;;;;;;2.93;2.63;;;11.00;91.40;;;;;;5138399;27;20462;-63
2021/10/04 06:10:10;;;;;;;7.77;6.03;;;11.00;1.00;;;;;;5138476;27;20826;-63
2021/10/04 06:12:39;;;;;;;7.53;5.87;;;11.00;1.00;;;;;;5137471;27;20632;-63
2021/10/04 06:15:06;;;;;;;6.90;5.43;;;11.00;99.90;;;;;;5137132;27;20816;-63
2021/10/04 06:17:34;;;;;;;5.30;4.80;;;11.00;99.90;;;;;;5136550;27;20466;-63
2021/10/04 06:20:01;;;;;;;5.47;2.57;;;11.10;99.90;;;;;;5136256;27;20907;-63
2021/10/04 06:22:28;;;;;;;4.90;3.10;;;11.10;89.40;;;;;;5137151;27;20458;-64
2021/10/04 06:24:55;;;;;;;5.90;2.50;;;11.10;1.00;;;;;;5135950;27;20523;-63
2021/10/04 06:27:22;;;;;;;4.00;2.50;;;11.10;99.90;;;;;;5136557;27;20465;-63
2021/10/04 06:29:52;;;;;;;4.43;2.50;;;11.20;99.90;;;;;;5137330;27;20462;-63
2021/10/04 06:32:19;;;;;;;3.33;2.37;;;11.20;99.90;;;;;;5137483;27;20451;-63
2021/10/04 06:34:46;;;;;;;4.70;2.67;;;11.20;44.10;;;;;;5137049;27;20975;-63
2021/10/04 06:37:20;;;;;;;5.63;3.17;;;11.20;99.90;;;;;;5137513;27;20458;-63
2021/10/04 06:39:47;;;;;;;5.53;3.50;;;11.30;96.70;;;;;;5137605;27;20769;-63
2021/10/04 06:42:16;;;;;;;3.80;2.70;;;11.30;1.00;;;;;;5136861;27;20861;-63
2021/10/04 06:44:43;;;;;;;2.67;2.43;;;11.40;99.90;;;;;;5137457;28;20526;-63
2021/10/04 06:47:13;;;;;;;2.77;2.50;;;11.30;99.90;;;;;;5137553;28;20469;-63
2021/10/04 06:49:42;;;;;;;4.70;2.67;;;11.40;99.90;;;;;;5137242;28;20494;-63
2021/10/04 06:52:11;;;;;;;6.03;2.87;;;11.40;99.90;;;;;;5137249;28;20788;-63
2021/10/04 06:54:41;;;;;;;3.20;2.73;;;11.50;99.90;;;;;;5137504;28;20468;-63
2021/10/04 06:57:13;;;;;;;3.97;2.20;;;11.50;1.00;;;;;;5136611;28;20454;-63
2021/10/04 06:59:40;;;;;;;5.93;2.37;;;11.60;1.00;;;;;;5136483;28;20470;-63
2021/10/04 07:02:10;;;;;;;4.23;1.97;;;11.60;1.00;;;;;;5137095;28;20458;-63
2021/10/04 07:04:41;;;;;;;4.80;4.20;;;11.60;1.00;;;;;;5137561;28;20543;-63
2021/10/04 07:07:13;;;;;;;7.33;3.50;;;11.70;1.00;;;;;;5137060;28;20745;-63
2021/10/04 07:09:40;;;;;;;6.00;4.07;;;11.90;1.00;;;;;;5136987;28;20451;-63
2021/10/04 07:12:07;;;;;;;3.30;2.80;;;12.00;1.00;;;;;;5137235;28;20490;-63
2021/10/04 07:14:35;;;;;;;4.20;2.50;;;12.10;99.90;;;;;;5118326;28;20521;-63
2021/10/04 07:17:01;;;;;;;12.23;3.63;;;12.20;99.90;;;;;;5125759;28;20441;-63
2021/10/04 07:19:28;;;;;;;3.73;2.80;;;12.20;99.90;;;;;;5127262;28;20462;-63
2021/10/04 07:21:59;;;;;;;3.63;2.30;;;12.30;99.90;;;;;;5125879;28;20466;-62
2021/10/04 07:24:26;;;;;;;5.43;3.30;;;12.30;99.90;;;;;;5122136;27;20503;-62
2021/10/04 07:26:53;;;;;;;5.37;2.50;;;12.30;99.90;;;;;;5138683;27;20830;-62
2021/10/04 07:29:20;;;;;;;5.07;3.60;;;12.30;99.90;;;;;;5123548;27;20479;-62
2021/10/04 07:31:48;;;;;;;6.37;3.20;;;12.40;99.90;;;;;;5128878;27;20996;-62
2021/10/04 07:34:16;;;;;;;5.53;2.63;;;12.40;93.80;;;;;;5136793;27;20528;-62
2021/10/04 07:36:47;;;;;;;5.37;4.17;;;12.50;53.40;;;;;;5123320;27;20471;-63
2021/10/04 07:39:18;;;;;;;6.60;4.00;;;12.50;38.40;;;;;;5127134;27;20534;-62
2021/10/04 07:41:46;;;;;;;6.07;3.20;;;12.40;31.60;;;;;;5122004;27;20471;-62
2021/10/04 07:44:13;;;;;;;6.93;3.37;;;12.40;55.60;;;;;;5135712;27;20475;-63
2021/10/04 07:46:42;;;;;;;5.07;2.60;;;12.40;21.60;;;;;;5140377;27;20463;-63
2021/10/04 07:49:09;;;;;;;6.30;3.40;;;12.40;22.70;;;;;;5140293;27;20454;-63
2021/10/04 07:51:36;;;;;;;5.77;2.27;;;12.40;13.80;;;;;;5140064;27;20974;-62
2021/10/04 07:54:05;;;;;;;3.20;2.70;;;12.40;29.40;;;;;;5140810;27;20461;-63
2021/10/04 07:56:33;;;;;;;6.10;3.37;;;12.40;1.00;;;;;;5140287;27;20454;-64
2021/10/04 07:59:01;;;;;;;3.57;3.07;;;12.40;1.00;;;;;;5140110;27;20507;-62
2021/10/04 08:01:29;;;;;;;9.90;2.90;;;12.50;3.40;;;;;;5140346;27;20865;-62
2021/10/04 08:03:56;;;;;;;6.70;3.00;;;12.50;1.00;;;;;;5140134;27;20506;-62
2021/10/04 08:06:25;;;;;;;7.97;3.40;;;12.50;1.00;;;;;;5140030;27;20462;-63
2021/10/04 08:08:52;;;;;;;4.17;2.70;;;12.60;1.00;;;;;;5140073;27;20880;-61
2021/10/04 08:11:19;;;;;;;3.87;2.97;;;12.60;1.00;;;;;;5139414;27;20490;-63
2021/10/04 08:13:50;;;;;;;4.70;2.83;;;12.60;1.00;;;;;;5140153;27;20527;-61
2021/10/04 08:16:17;;;;;;;4.97;2.73;;;12.80;1.00;;;;;;5140315;27;20875;-61
2021/10/04 08:18:46;;;;;;;6.30;2.70;;;12.90;1.00;;;;;;5139868;27;20429;-62
2021/10/04 08:21:15;;;;;;;3.90;2.40;;;13.10;1.00;;;;;;5139991;27;20873;-61
2021/10/04 08:23:42;;;;;;;5.30;2.73;;;13.30;1.00;;;;;;5139769;27;20516;-62
2021/10/04 08:26:12;;;;;;;2.90;2.70;;;13.40;1.00;;;;;;5139279;27;20507;-59
2021/10/04 08:28:41;;;;;;;5.00;2.10;;;13.50;1.00;;;;;;5140106;27;20918;-60
2021/10/04 08:31:10;;;;;;;3.13;2.50;;;13.60;1.00;;;;;;5139140;27;20547;-60
2021/10/04 08:33:37;;;;;;;4.77;2.67;;;13.60;1.00;;;;;;5139596;27;20455;-60
2021/10/04 08:36:09;;;;;;;5.57;3.00;;;13.70;1.00;;;;;;5139169;27;20462;-58
2021/10/04 08:38:37;;;;;;;5.73;2.97;;;13.70;1.00;;;;;;5139496;27;20757;-59
2021/10/04 08:41:04;;;;;;;3.57;2.63;;;13.70;1.00;;;;;;5139349;27;20455;-60
2021/10/04 08:43:31;;;;;;;5.50;2.47;;;13.50;1.00;;;;;;5139783;27;20450;-61
2021/10/04 08:45:59;;;;;;;2.67;2.47;;;13.50;1.00;;;;;;5139679;27;20771;-60
2021/10/04 08:48:29;;;;;;;4.63;2.53;;;13.50;1.00;;;;;;5139456;27;20455;-59
2021/10/04 08:50:56;;;;;;;2.67;2.47;;;13.40;1.00;;;;;;5138543;27;20490;-61
2021/10/04 08:53:29;;;;;;;2.70;2.50;;;13.40;1.00;;;;;;5139027;27;20512;-59
2021/10/04 08:55:56;;;;;;;5.07;2.43;;;13.40;1.00;;;;;;5139489;27;20459;-61
2021/10/04 08:58:25;;;;;;;3.23;2.30;;;13.50;1.00;;;;;;5139140;27;20484;-61
2021/10/04 09:00:53;;;;;;;4.70;3.03;;;13.50;1.00;;;;;;5138860;27;20474;-57
2021/10/04 09:03:20;;;;;;;3.43;2.17;;;13.60;1.00;;;;;;5138715;27;20482;-60
2021/10/04 09:05:57;;;;;;;4.47;2.60;;;13.60;1.00;;;;;;5139154;27;20798;-56
2021/10/04 09:08:24;;;;;;;3.47;2.70;;;13.70;1.00;;;;;;5139226;27;20510;-59
2021/10/04 09:10:56;;;;;;;3.77;2.50;;;13.80;1.00;;;;;;5138023;27;20463;-60
2021/10/04 09:13:23;;;;;;;3.20;2.70;;;13.90;1.00;;;;;;5139224;27;20900;-59
2021/10/04 09:15:52;;;;;;;2.70;2.50;;;14.10;1.00;;;;;;5139368;27;20866;-59
2021/10/04 09:18:25;;;;;;;3.83;2.40;;;14.30;1.00;;;;;;5138695;27;20511;-57
2021/10/04 09:20:59;;;;;;;5.00;2.60;;;14.50;1.00;;;;;;5138490;27;20466;-60
2021/10/04 09:23:34;;;;;;;6.30;2.57;;;14.40;1.00;;;;;;5138656;27;20459;-58
2021/10/04 09:26:08;;;;;;;3.53;2.40;;;14.20;1.00;;;;;;5138906;27;20458;-57
2021/10/04 09:28:37;;;;;;;4.73;2.50;;;14.10;1.00;;;;;;5138608;27;20908;-62
2021/10/04 09:31:24;;;;;;;5.67;3.30;;;14.00;1.00;;;;;;5138548;27;20882;-60
2021/10/04 09:34:11;;;;;;;5.17;2.83;;;14.10;1.00;;;;;;5138677;27;20458;-61
2021/10/04 09:36:46;;;;;;;3.40;2.30;;;14.20;1.00;;;;;;5138316;27;20455;-61
2021/10/04 09:39:23;;;;;;;3.67;2.50;;;14.20;1.00;;;;;;5138484;27;20458;-58
2021/10/04 09:42:18;;;;;;;4.97;2.80;;;14.10;1.00;;;;;;5118115;27;20546;-59
2021/10/04 09:44:54;;;;;;;3.20;2.33;;;14.30;1.00;;;;;;5090370;27;20527;-60
2021/10/04 09:47:24;;;;;;;3.70;2.00;;;14.70;1.00;;;;;;5137747;27;20458;-58
2021/10/04 09:50:10;;;;;;;7.10;2.50;;;15.20;1.00;;;;;;5137943;27;20448;-61
2021/10/04 09:52:45;;;;;;;3.07;2.40;;;15.60;1.00;;;;;;5138439;27;20547;-58
2021/10/04 09:55:26;;;;;;;5.43;3.00;;;15.90;1.00;;;;;;5138122;27;20515;-55
2021/10/04 09:58:17;;;;;;;3.00;2.70;;;15.90;1.00;;;;;;5138094;27;20800;-57
2021/10/04 10:00:47;;;;;;;2.40;2.10;;;15.60;1.00;;;;;;5138315;27;20425;-60
2021/10/04 10:03:18;;;;;;;4.67;2.53;;;15.90;1.00;;;;;;5137524;27;20539;-58
2021/10/04 10:05:47;;;;;;;3.70;2.60;;;16.00;1.00;;;;;;5137749;27;20471;-55
2021/10/04 10:08:15;;;;;;;2.90;2.67;;;15.90;1.00;;;;;;5137947;27;20466;-58
2021/10/04 10:10:44;;;;;;;3.17;2.37;;;15.50;1.00;;;;;;5125765;27;20459;-57
2021/10/04 10:13:15;;;;;;;3.57;2.37;;;15.20;1.00;;;;;;5135616;27;20940;-57
2021/10/04 10:15:48;;;;;;;5.50;2.67;;;15.20;1.00;;;;;;5137986;27;20885;-56
2021/10/04 10:18:20;;;;;;;3.73;2.73;;;15.30;1.00;;;;;;5137928;27;20515;-58
2021/10/04 10:20:55;;;;;;;4.20;2.53;;;15.30;1.00;;;;;;5137400;27;20469;-59
2021/10/04 10:23:47;;;;;;;4.53;2.60;;;15.40;1.00;;;;;;5137659;27;20560;-55
2021/10/04 10:26:42;;;;;;;3.53;2.80;;;15.80;1.00;;;;;;5137863;27;20460;-57
2021/10/04 10:29:32;;;;;;;4.57;2.40;;;15.70;1.00;;;;;;5089425;27;20931;-59
2021/10/04 10:32:12;;;;;;;3.30;2.43;;;15.70;1.00;;;;;;5131729;27;20486;-58
2021/10/04 10:34:51;;;;;;;2.50;2.30;;;16.00;1.00;;;;;;5137950;27;20489;-55
2021/10/04 10:37:21;;;;;;;4.83;2.43;;;16.80;1.00;;;;;;5137223;27;20458;-60
2021/10/04 10:39:55;;;;;;;2.50;2.20;;;17.00;1.00;;;;;;5137463;27;20493;-57
2021/10/04 10:42:27;;;;;;;6.10;2.40;;;17.20;1.00;;;;;;5137405;27;20739;-58
2021/10/04 10:45:19;;;;;;;2.50;2.27;;;17.40;1.00;;;;;;5137206;27;20463;-54
2021/10/04 10:47:58;;;;;;;5.23;3.47;;;17.90;1.00;;;;;;5117524;28;20916;-54
2021/10/04 10:50:30;;;;;;;3.53;2.17;;;18.40;1.00;;;;;;5137081;28;20466;-60
2021/10/04 10:53:27;;;;;;;8.13;3.00;;;18.80;1.00;;;;;;5122858;28;20602;-59
2021/10/04 10:55:58;;;;;;;6.07;2.30;;;18.90;1.00;;;;;;5136571;28;20798;-58
2021/10/04 10:58:28;;;;;;;2.70;2.40;;;18.10;99.90;;;;;;5136178;28;20459;-54
2021/10/04 11:01:05;;;;;;;4.77;2.70;;;17.90;99.90;;;;;;5138823;27;20560;-52
2021/10/04 11:03:44;;;;;;;5.00;2.83;;;17.50;99.90;;;;;;5141419;27;20560;-54
2021/10/04 11:06:14;;;;;;;4.30;2.50;;;17.40;99.90;;;;;;5141501;27;20461;-55
2021/10/04 11:09:00;;;;;;;7.33;2.47;;;17.50;99.90;;;;;;5140660;27;20433;-57
2021/10/04 11:11:34;;;;;;;4.73;2.70;;;17.50;99.90;;;;;;5140849;27;20491;-58
2021/10/04 11:14:09;;;;;;;3.53;2.50;;;17.60;99.90;;;;;;5141237;27;20465;-58
2021/10/04 11:16:39;;;;;;;2.93;2.20;;;18.00;99.90;;;;;;5141405;27;20454;-58
2021/10/04 11:19:07;;;;;;;3.63;2.53;;;18.40;99.90;;;;;;5140720;27;20458;-51
2021/10/04 11:21:45;;;;;;;2.90;2.20;;;18.10;99.90;;;;;;5140977;27;20471;-53
2021/10/04 11:24:12;;;;;;;3.10;2.37;;;17.90;99.90;;;;;;5141047;27;20458;-51
2021/10/04 11:26:41;;;;;;;2.63;2.03;;;17.90;99.90;;;;;;5141215;27;20462;-57
2021/10/04 11:29:10;;;;;;;4.33;2.10;;;17.90;99.90;;;;;;5140792;27;20762;-52
2021/10/04 11:31:44;;;;;;;4.37;2.20;;;17.60;99.90;;;;;;5140379;27;20458;-52
2021/10/04 11:34:16;;;;;;;4.77;2.10;;;17.60;99.90;;;;;;5141433;27;20519;-51
2021/10/04 11:36:44;;;;;;;4.03;2.53;;;17.30;99.90;;;;;;5121252;27;20491;-54
2021/10/04 11:39:22;;;;;;;3.90;2.27;;;17.70;99.90;;;;;;5140553;27;20534;-56
2021/10/04 11:41:52;;;;;;;2.67;2.13;;;18.20;99.90;;;;;;5140582;27;20462;-55
2021/10/04 11:44:22;;;;;;;2.30;2.10;;;18.50;99.90;;;;;;5140839;27;20511;-58
2021/10/04 11:46:51;;;;;;;2.80;2.27;;;18.40;99.90;;;;;;5140230;27;20518;-52
2021/10/04 11:49:21;;;;;;;2.90;2.47;;;18.60;99.90;;;;;;5140629;27;20429;-49
2021/10/04 11:51:50;;;;;;;2.60;2.00;;;18.80;99.90;;;;;;5140034;27;20459;-55
2021/10/04 11:54:32;;;;;;;2.77;2.27;;;18.90;99.90;;;;;;5135546;27;20587;-51
2021/10/04 11:57:01;;;;;;;3.03;2.43;;;18.70;99.90;;;;;;5129213;27;20905;-53
2021/10/04 11:59:45;;;;;;;2.90;2.67;;;18.70;99.90;;;;;;5139606;27;20455;-56
2021/10/04 12:02:18;;;;;;;3.33;2.33;;;19.20;99.90;;;;;;5139689;27;20454;-56
2021/10/04 12:04:45;;;;;;;3.40;1.90;;;19.60;99.90;;;;;;5139937;27;20934;-51
2021/10/04 12:07:13;;;;;;;2.87;1.60;;;19.30;99.90;;;;;;5139705;27;20748;-54
2021/10/04 12:09:40;;;;;;;3.70;2.67;;;19.20;99.90;;;;;;5139424;27;20466;-57
2021/10/04 12:12:09;;;;;;;8.70;2.70;;;19.20;99.90;;;;;;5138784;27;20482;-52
2021/10/04 12:14:39;;;;;;;3.20;2.53;;;19.20;99.90;;;;;;5139199;27;20881;-50
2021/10/04 12:17:08;;;;;;;2.97;2.63;;;19.40;99.90;;;;;;5138700;27;20881;-53
2021/10/04 12:19:36;;;;;;;4.57;2.30;;;18.90;99.90;;;;;;5138426;27;20854;-54
2021/10/04 12:22:06;;;;;;;3.10;2.07;;;19.10;99.90;;;;;;5138622;27;20462;-54
2021/10/04 12:24:41;;;;;;;3.67;2.00;;;18.60;99.90;;;;;;5138096;27;20519;-48
2021/10/04 12:27:15;;;;;;;4.77;2.97;;;18.20;99.90;;;;;;5139987;27;20485;-48
2021/10/04 12:29:46;;;;;;;4.37;2.27;;;18.60;99.90;;;;;;5139873;27;20459;-54
2021/10/04 12:32:32;;;;;;;3.37;2.30;;;18.80;99.90;;;;;;5137703;27;20787;-50
2021/10/04 12:35:07;;;;;;;3.40;1.97;;;18.90;99.90;;;;;;5138629;27;20458;-49
2021/10/04 12:37:37;;;;;;;3.80;2.10;;;19.10;99.90;;;;;;5138651;27;20550;-48
2021/10/04 12:40:40;;;;;;;2.80;2.03;;;19.20;99.90;;;;;;5136988;27;20458;-50
2021/10/04 12:43:12;;;;;;;2.50;2.20;;;18.80;99.90;;;;;;5122143;27;20549;-50
2021/10/04 12:45:40;;;;;;;2.33;2.03;;;18.40;99.90;;;;;;5139135;27;20466;-53
2021/10/04 12:48:15;;;;;;;2.23;2.03;;;18.30;99.90;;;;;;5139478;27;20458;-50
2021/10/04 12:50:43;;;;;;;6.63;2.73;;;18.30;99.90;;;;;;5138799;27;20462;-53
2021/10/04 12:53:15;;;;;;;2.70;2.03;;;18.70;99.90;;;;;;5138850;27;20518;-51
2021/10/04 12:55:59;;;;;;;2.93;2.40;;;18.80;99.90;;;;;;5139321;27;20809;-56
2021/10/04 12:58:30;;;;;;;2.50;2.03;;;19.20;99.90;;;;;;5138542;27;20560;-52
2021/10/04 13:01:10;;;;;;;3.20;2.10;;;19.10;99.90;;;;;;5138241;27;20459;-53
2021/10/04 13:03:53;;;;;;;2.10;1.90;;;18.90;99.90;;;;;;5138310;27;20571;-52
2021/10/04 13:06:20;;;;;;;3.23;2.30;;;18.80;99.90;;;;;;5138888;27;20458;-51
2021/10/04 13:08:47;;;;;;;2.77;2.10;;;18.60;99.90;;;;;;5138941;27;20462;-49
2021/10/04 13:11:19;;;;;;;3.00;2.00;;;18.60;99.90;;;;;;5132297;27;20964;-50